This is the latest recevied weather packets stored in our database for station/object KF0PEC-15. If no packets are shown the sender has not sent any weather packets the latest 10 day(s).
| Time | Temp. | Humidity | Pressure | Rain* | Wind** | Luminosity | Snow |
|---|---|---|---|---|---|---|---|
| 1777802270 | 3.89° C | 63% | 1024.2 hPa | 0 mm | - | 0 W/m² | - |
| 1777801745 | 3.89° C | 63% | 1024.3 hPa | 0 mm | - | 0 W/m² | - |
| 1777801193 | 3.33° C | 64% | 1024.5 hPa | 0 mm | - | 0 W/m² | - |
| 1777800670 | 3.33° C | 63% | 1024.6 hPa | 0 mm | - | 0 W/m² | - |
| 1777800175 | 3.33° C | 64% | 1024.6 hPa | 0 mm | - | 0 W/m² | - |
| 1777799670 | 3.33° C | 64% | 1024.4 hPa | 0 mm | - | 0 W/m² | - |
| 1777799150 | 3.33° C | 63% | 1024.6 hPa | 0 mm | - | 0 W/m² | - |
| 1777798590 | 3.33° C | 63% | 1024.8 hPa | 0 mm | - | 0 W/m² | - |
| 1777798020 | 3.33° C | 64% | 1024.7 hPa | 0 mm | - | 0 W/m² | - |
| 1777797537 | 3.89° C | 64% | 1024.6 hPa | 0 mm | - | 0 W/m² | - |
| 1777796950 | 3.89° C | 64% | 1024.6 hPa | 0 mm | - | 0 W/m² | - |
| 1777796450 | 3.89° C | 62% | 1024.5 hPa | 0 mm | - | 0 W/m² | - |
| 1777795950 | 4.44° C | 60% | 1024.2 hPa | 0 mm | - | 0 W/m² | - |
| 1777795466 | 5° C | 57% | 1024 hPa | 0 mm | - | 0 W/m² | - |
| 1777794990 | 4.44° C | 57% | 1024.1 hPa | 0 mm | - | 0 W/m² | - |
| 1777794410 | 4.44° C | 58% | 1024.2 hPa | 0 mm | - | 0 W/m² | - |
| 1777793895 | 4.44° C | 60% | 1024.8 hPa | 0 mm | - | 0 W/m² | - |
| 1777793345 | 4.44° C | 61% | 1024.8 hPa | 0 mm | - | 0 W/m² | - |
| 1777792828 | 4.44° C | 62% | 1024.6 hPa | 0 mm | - | 0 W/m² | - |
| 1777792255 | 4.44° C | 60% | 1024.6 hPa | 0 mm | - | 0 W/m² | - |
| 1777791675 | 4.44° C | 64% | 1024.8 hPa | 0 mm | - | 0 W/m² | - |
| 1777791150 | 4.44° C | 62% | 1024.6 hPa | 0 mm | - | 0 W/m² | - |
| 1777790665 | 5° C | 63% | 1024.6 hPa | 0 mm | - | 0 W/m² | - |
| 1777790077 | 5° C | 61% | 1024.4 hPa | 0 mm | - | 0 W/m² | - |
| 1777789505 | 5.56° C | 62% | 1024.4 hPa | 0 mm | - | 0 W/m² | - |
* Rain latest hour (hover to see other rain measurements)
** Current wind speed in m/s (hover to see current wind gust speed)